Poughkeepsie, NY (12601)

11:52 AM EDT on October 01, 2016 (GMT -0400)
Arlington | | Change Station

Elev 220 ft 41.71 °N, 73.90 °W | Updated 2 minutes ago

Overcast
Overcast
55.2 °F
Feels Like 55.2 °F
N
0.0
Wind Variable Wind from SE
Gusts 0.0 mph

Today
High -- | Low -- °F
--% Chance of Precip.
Yesterday
High -- | Low -- °F
Precip. -- in
Pressure 30.24 in
Visibility 3.0 miles
Clouds Overcast 600 ft
Dew Point 54 °F
Humidity 96%
Rainfall 0.04 in
Snow Depth Not available.
6:53 AM 6:36 PM
New Moon, 0% visible
METAR KPOU 011453Z 36007KT 3SM BR OVC006 12/11 A3025 RMK AO2 SLP240 T01170111 56008
Pressure 30.24 in
Visibility 3.0 miles
Clouds Overcast 600 ft
Dew Point 54 °F
Humidity 96%
Rainfall 0.04 in
Snow Depth Not available.
6:53 AM 6:36 PM
New Moon, 0% visible
METAR KPOU 011453Z 36007KT 3SM BR OVC006 12/11 A3025 RMK AO2 SLP240 T01170111 56008

10-Day Weather Forecast

Almanac

Astronomy

Oct. 01, 2016 Rise Set
Actual Time
Civil Twilight
Nautical Twilight
Astronomical Twilight
Moon
Length of Visible Light
Length of Day
Tomorrow will be .
, % of the Moon is Illuminated

Today's Extremes

State Highs State Lows

Community

WunderPhotos

Upload Photos

1,942,957 photos uploaded!

WunderBlog® & News

Nearby

Air Quality

  Air Quality AQ Index Pollutant
Not available.

Snow Depth

Station Depth Elevation

Earthquake Activity

City Distance Mag. Time & Date
Minimum magnitude displayed is 2.5.

Coastal Water Temperatures

Place Temperature

Stations

Nearby Weather Stations

Station Location Temp. Windchill Dew Point Humidity Wind Precip. Elev Updated Type
                   

Watches & Warnings

There are currently no watches in effect.